createdAt,value
2018-12-06T00:01:08.279Z,17.90
2018-12-06T00:03:35.750Z,16.30
2018-12-06T00:06:03.233Z,17.83
2018-12-06T00:08:30.703Z,16.53
2018-12-06T00:10:58.170Z,18.30
2018-12-06T00:13:25.636Z,17.97
2018-12-06T00:15:53.081Z,18.13
2018-12-06T00:18:20.559Z,15.43
2018-12-06T00:20:48.041Z,17.27
2018-12-06T00:23:15.596Z,16.93
2018-12-06T00:25:43.100Z,17.90
2018-12-06T00:28:10.563Z,15.00
2018-12-06T00:30:38.518Z,15.47
2018-12-06T00:33:06.919Z,17.27
2018-12-06T00:35:34.394Z,15.80
2018-12-06T00:38:02.740Z,16.83
2018-12-06T00:40:30.203Z,15.67
2018-12-06T00:42:57.744Z,16.07
2018-12-06T00:45:25.247Z,16.07
2018-12-06T00:47:52.703Z,14.53
2018-12-06T00:50:20.167Z,14.97
2018-12-06T00:52:47.713Z,13.83
2018-12-06T00:55:15.215Z,14.80
2018-12-06T00:57:42.781Z,16.23
2018-12-06T01:00:10.511Z,14.50
2018-12-06T01:02:37.983Z,16.17
2018-12-06T01:05:06.217Z,15.80
2018-12-06T01:07:33.664Z,15.20
2018-12-06T01:10:01.199Z,14.53
2018-12-06T01:12:28.784Z,15.07
2018-12-06T01:14:56.248Z,16.57
2018-12-06T01:17:23.711Z,16.70
2018-12-06T01:19:51.186Z,14.67
2018-12-06T01:22:18.818Z,14.73
2018-12-06T01:24:46.283Z,15.63
2018-12-06T01:27:13.752Z,16.47
2018-12-06T01:29:41.232Z,14.63
2018-12-06T01:32:08.689Z,13.90
2018-12-06T01:34:36.143Z,16.60
2018-12-06T01:37:03.646Z,16.37
2018-12-06T01:39:31.099Z,17.00
2018-12-06T01:41:58.567Z,15.57
2018-12-06T01:44:26.044Z,15.77
2018-12-06T01:46:53.518Z,14.80
2018-12-06T01:49:20.982Z,15.93
2018-12-06T01:51:48.440Z,15.37
2018-12-06T01:54:15.915Z,14.87
2018-12-06T01:56:43.402Z,14.70
2018-12-06T01:59:10.848Z,13.80
2018-12-06T02:01:38.312Z,15.57
2018-12-06T02:04:05.780Z,15.97
2018-12-06T02:06:33.238Z,14.90
2018-12-06T02:09:00.702Z,16.57
2018-12-06T02:11:28.159Z,16.23
2018-12-06T02:13:55.635Z,14.53
2018-12-06T02:16:23.101Z,15.40
2018-12-06T02:18:50.576Z,14.40
2018-12-06T02:21:18.765Z,14.27
2018-12-06T02:23:46.241Z,13.80
2018-12-06T02:26:13.762Z,12.97
2018-12-06T02:28:41.256Z,14.17
2018-12-06T02:31:08.707Z,13.87
2018-12-06T02:33:36.160Z,14.10
2018-12-06T02:36:03.635Z,13.93
2018-12-06T02:38:31.193Z,12.23
2018-12-06T02:40:58.673Z,14.40
2018-12-06T02:43:26.131Z,14.10
2018-12-06T02:45:53.651Z,15.03
2018-12-06T02:48:21.107Z,14.33
2018-12-06T02:50:48.583Z,13.97
2018-12-06T02:53:16.106Z,12.87
2018-12-06T02:55:43.630Z,13.57
2018-12-06T02:58:11.168Z,13.70
2018-12-06T03:00:39.577Z,12.87
2018-12-06T03:03:07.133Z,13.07
2018-12-06T03:05:35.100Z,12.37
2018-12-06T03:08:02.550Z,12.90
2018-12-06T03:10:30.031Z,13.77
2018-12-06T03:12:57.487Z,13.10
2018-12-06T03:15:24.979Z,13.43
2018-12-06T03:17:52.434Z,13.47
2018-12-06T03:20:19.890Z,14.47
2018-12-06T03:22:47.467Z,14.07
2018-12-06T03:25:14.930Z,14.00
2018-12-06T03:27:42.397Z,14.80
2018-12-06T03:30:09.929Z,12.77
2018-12-06T03:32:37.561Z,13.40
2018-12-06T03:35:05.152Z,14.23
2018-12-06T03:37:32.629Z,14.60
2018-12-06T03:40:00.074Z,13.87
2018-12-06T03:42:27.551Z,14.13
2018-12-06T03:44:54.992Z,13.90
2018-12-06T03:47:22.468Z,12.30
2018-12-06T03:49:49.915Z,13.67
2018-12-06T03:52:17.426Z,12.20
2018-12-06T03:54:45.020Z,13.87
2018-12-06T03:57:12.515Z,14.10
2018-12-06T03:59:39.957Z,12.80
2018-12-06T04:02:07.495Z,12.83
2018-12-06T04:04:34.948Z,13.97
2018-12-06T04:07:02.410Z,13.00
2018-12-06T04:09:29.891Z,13.13
2018-12-06T04:11:57.351Z,12.27
2018-12-06T04:14:24.830Z,12.63
2018-12-06T04:16:52.372Z,13.23
2018-12-06T04:19:19.867Z,12.47
2018-12-06T04:21:47.315Z,14.00
2018-12-06T04:24:14.784Z,13.53
2018-12-06T04:26:42.234Z,13.70
2018-12-06T04:29:09.703Z,14.67
2018-12-06T04:31:37.162Z,13.53
2018-12-06T04:34:05.321Z,13.37
2018-12-06T04:36:32.783Z,12.97
2018-12-06T04:39:00.332Z,13.30
2018-12-06T04:41:27.801Z,12.70
2018-12-06T04:43:55.368Z,12.63
2018-12-06T04:46:22.842Z,13.40
2018-12-06T04:48:50.302Z,12.67
2018-12-06T04:51:17.758Z,13.90
2018-12-06T04:53:45.210Z,13.90
2018-12-06T04:56:12.691Z,14.37
2018-12-06T04:58:40.137Z,13.17
2018-12-06T05:01:07.623Z,13.17
2018-12-06T05:03:35.061Z,11.87
2018-12-06T05:06:02.545Z,12.43
2018-12-06T05:08:30.007Z,12.07
2018-12-06T05:10:57.476Z,12.30
2018-12-06T05:13:24.930Z,11.57
2018-12-06T05:15:52.394Z,13.60
2018-12-06T05:18:19.862Z,12.17
2018-12-06T05:20:47.334Z,12.93
2018-12-06T05:23:14.798Z,12.67
2018-12-06T05:25:42.284Z,12.17
2018-12-06T05:28:09.749Z,11.70
2018-12-06T05:30:37.199Z,12.13
2018-12-06T05:33:04.678Z,13.00
2018-12-06T05:35:32.130Z,12.87
2018-12-06T05:37:59.599Z,12.93
2018-12-06T05:40:27.053Z,13.03
2018-12-06T05:42:54.615Z,15.27
2018-12-06T05:45:22.073Z,20.20
2018-12-06T05:47:49.537Z,14.97
2018-12-06T05:50:16.990Z,14.57
2018-12-06T05:52:45.381Z,15.63
2018-12-06T05:55:12.835Z,15.30
2018-12-06T05:57:40.307Z,15.53
2018-12-06T06:00:08.458Z,13.67
2018-12-06T06:02:35.959Z,14.43
2018-12-06T06:05:04.799Z,15.20
2018-12-06T06:07:32.247Z,15.83
2018-12-06T06:09:59.739Z,15.53
2018-12-06T06:12:27.196Z,16.23
2018-12-06T06:14:54.659Z,15.20
2018-12-06T06:17:22.115Z,15.87
2018-12-06T06:19:49.575Z,16.53
2018-12-06T06:22:17.091Z,12.77
2018-12-06T06:24:44.563Z,15.10
2018-12-06T06:27:12.023Z,16.17
2018-12-06T06:29:40.216Z,22.10
2018-12-06T06:32:07.685Z,20.57
2018-12-06T06:34:35.157Z,20.60
2018-12-06T06:37:02.610Z,15.17
2018-12-06T06:39:30.094Z,14.10
2018-12-06T06:41:58.146Z,14.90
2018-12-06T06:44:25.683Z,14.43
2018-12-06T06:46:53.349Z,14.63
2018-12-06T06:49:20.804Z,15.70
2018-12-06T06:51:48.275Z,19.40
2018-12-06T06:54:15.758Z,19.53
2018-12-06T06:56:43.226Z,16.43
2018-12-06T06:59:10.678Z,15.70
2018-12-06T07:01:38.211Z,15.17
2018-12-06T07:04:05.815Z,15.23
2018-12-06T07:06:33.291Z,16.13
2018-12-06T07:09:00.786Z,16.83
2018-12-06T07:11:28.280Z,15.50
2018-12-06T07:13:55.729Z,15.10
2018-12-06T07:16:23.195Z,16.83
2018-12-06T07:18:50.671Z,15.77
2018-12-06T07:21:18.154Z,16.63
2018-12-06T07:23:45.754Z,17.60
2018-12-06T07:26:13.284Z,15.80
2018-12-06T07:28:40.764Z,15.57
2018-12-06T07:31:08.207Z,13.83
2018-12-06T07:33:35.703Z,15.37
2018-12-06T07:36:03.325Z,15.90
2018-12-06T07:38:30.808Z,14.27
2018-12-06T07:40:58.279Z,15.40
2018-12-06T07:43:25.763Z,16.10
2018-12-06T07:45:55.272Z,14.87
2018-12-06T07:48:22.744Z,14.27
2018-12-06T07:50:50.213Z,15.50
2018-12-06T07:53:18.291Z,15.47
2018-12-06T07:55:45.779Z,13.70
2018-12-06T07:58:13.255Z,16.37
2018-12-06T08:00:41.642Z,14.23
2018-12-06T08:03:09.117Z,14.20
2018-12-06T08:05:36.651Z,15.07
2018-12-06T08:08:04.119Z,13.70
2018-12-06T08:10:31.574Z,14.27
2018-12-06T08:12:59.126Z,13.87
2018-12-06T08:15:26.574Z,12.77
2018-12-06T08:17:54.042Z,13.33
2018-12-06T08:20:21.503Z,13.70
2018-12-06T08:22:49.055Z,13.93
2018-12-06T08:25:16.570Z,12.33
2018-12-06T08:27:44.072Z,12.27
2018-12-06T08:30:11.616Z,12.70
2018-12-06T08:32:39.066Z,14.27
2018-12-06T08:35:06.687Z,12.87
2018-12-06T08:37:34.160Z,11.80
2018-12-06T08:40:01.673Z,11.47
2018-12-06T08:42:29.134Z,11.30
2018-12-06T08:44:56.609Z,13.60
2018-12-06T08:47:24.072Z,12.17
2018-12-06T08:49:51.541Z,12.43
2018-12-06T08:52:18.985Z,12.33
2018-12-06T08:54:46.463Z,11.90
2018-12-06T08:57:13.921Z,12.60
2018-12-06T08:59:41.397Z,11.47
2018-12-06T09:02:08.883Z,13.27
2018-12-06T09:04:37.645Z,13.27
2018-12-06T09:07:05.314Z,12.57
2018-12-06T09:09:32.786Z,12.23
2018-12-06T09:12:00.259Z,11.77
2018-12-06T09:14:27.797Z,14.00
2018-12-06T09:16:55.338Z,12.07
2018-12-06T09:19:22.803Z,10.87
2018-12-06T09:21:50.304Z,11.57
2018-12-06T09:24:17.787Z,12.00
2018-12-06T09:26:45.268Z,11.10
2018-12-06T09:29:12.724Z,11.73
2018-12-06T09:31:40.199Z,10.20
2018-12-06T09:34:07.714Z,9.93
2018-12-06T09:36:35.192Z,10.03
2018-12-06T09:39:03.787Z,11.73
2018-12-06T09:41:31.236Z,11.00
2018-12-06T09:43:58.718Z,12.83
2018-12-06T09:47:11.579Z,10.83
2018-12-06T09:49:39.041Z,9.47
2018-12-06T09:52:06.511Z,10.87
2018-12-06T09:54:34.674Z,8.63
2018-12-06T09:57:02.226Z,8.20
2018-12-06T09:59:29.721Z,7.73
2018-12-06T10:01:57.199Z,7.70
2018-12-06T10:04:24.647Z,8.00
2018-12-06T10:06:52.115Z,8.00
2018-12-06T10:09:19.590Z,8.23
2018-12-06T10:11:47.074Z,7.50
2018-12-06T10:14:15.007Z,7.57
2018-12-06T10:16:42.482Z,7.60
2018-12-06T10:19:09.968Z,7.57
2018-12-06T10:21:37.413Z,7.73
2018-12-06T10:24:05.282Z,8.60
2018-12-06T10:26:32.722Z,8.30
2018-12-06T10:29:00.196Z,8.87
2018-12-06T10:31:27.719Z,7.27
2018-12-06T10:33:55.187Z,9.13
2018-12-06T10:36:22.663Z,8.13
2018-12-06T10:38:50.152Z,8.17
2018-12-06T10:41:17.610Z,10.73
2018-12-06T10:43:45.094Z,9.57
2018-12-06T10:46:12.551Z,8.50
2018-12-06T10:48:40.019Z,9.63
2018-12-06T10:51:19.528Z,9.53
2018-12-06T10:53:47.005Z,8.80
2018-12-06T10:56:14.496Z,7.90
2018-12-06T10:58:41.973Z,8.63
2018-12-06T11:01:09.443Z,9.23
2018-12-06T11:06:41.434Z,10.53
2018-12-06T11:09:08.895Z,8.03
2018-12-06T11:11:36.388Z,7.80
2018-12-06T11:14:04.023Z,7.57
2018-12-06T11:16:31.500Z,7.67
2018-12-06T11:18:58.968Z,7.20
2018-12-06T11:21:26.426Z,7.90
2018-12-06T11:23:53.871Z,6.20
2018-12-06T11:26:21.362Z,6.33
2018-12-06T11:28:48.814Z,6.33
2018-12-06T11:31:16.288Z,6.10
2018-12-06T11:33:43.754Z,5.73
2018-12-06T11:36:11.266Z,5.83
2018-12-06T11:38:38.729Z,5.57
2018-12-06T11:41:06.206Z,6.30
2018-12-06T11:43:33.658Z,5.10
2018-12-06T11:46:01.143Z,5.73
2018-12-06T11:48:28.638Z,5.10
2018-12-06T11:50:56.105Z,5.40
2018-12-06T11:53:23.569Z,5.27
2018-12-06T11:55:51.023Z,4.87
2018-12-06T11:58:18.490Z,4.80
2018-12-06T12:00:45.965Z,4.77
2018-12-06T12:03:14.404Z,4.50
2018-12-06T12:05:41.862Z,4.23
2018-12-06T12:08:09.415Z,4.60
2018-12-06T12:10:36.876Z,4.23
2018-12-06T12:13:04.325Z,4.03
2018-12-06T12:15:31.802Z,4.73
2018-12-06T12:17:59.255Z,4.50
2018-12-06T12:20:26.743Z,4.20
2018-12-06T12:22:54.210Z,4.57
2018-12-06T12:25:21.703Z,4.20
2018-12-06T12:27:49.163Z,4.63
2018-12-06T12:30:16.743Z,5.10
2018-12-06T12:32:44.195Z,5.27
2018-12-06T12:35:11.703Z,4.20
2018-12-06T12:37:39.158Z,4.20
2018-12-06T12:40:08.778Z,4.13
2018-12-06T12:42:36.267Z,4.13
2018-12-06T12:45:05.988Z,4.07
2018-12-06T12:47:33.430Z,3.90
2018-12-06T12:50:00.896Z,4.17
2018-12-06T12:52:28.391Z,4.00
2018-12-06T12:54:55.857Z,4.77
2018-12-06T12:57:23.339Z,4.63
2018-12-06T12:59:51.700Z,3.67
2018-12-06T13:02:20.197Z,4.87
2018-12-06T13:04:47.656Z,4.23
2018-12-06T13:07:15.135Z,4.10
2018-12-06T13:09:42.565Z,3.70
2018-12-06T13:12:10.161Z,4.23
2018-12-06T13:14:37.634Z,4.27
2018-12-06T13:17:05.450Z,4.97
2018-12-06T13:19:32.907Z,4.30
2018-12-06T13:22:00.398Z,4.47
2018-12-06T13:24:27.873Z,4.50
2018-12-06T13:26:55.343Z,4.73
2018-12-06T13:29:22.827Z,4.07
2018-12-06T13:31:50.275Z,4.50
2018-12-06T13:34:17.768Z,4.93
2018-12-06T13:36:45.247Z,4.20
2018-12-06T13:39:12.849Z,5.03
2018-12-06T13:41:40.403Z,6.23
2018-12-06T13:44:07.891Z,5.70
2018-12-06T13:46:35.343Z,5.70
2018-12-06T13:49:02.798Z,4.97
2018-12-06T13:51:30.263Z,5.00
2018-12-06T13:53:57.739Z,4.50
2018-12-06T13:56:25.179Z,3.97
2018-12-06T13:58:52.670Z,4.63
2018-12-06T14:01:20.245Z,4.40
2018-12-06T14:03:48.001Z,4.07
2018-12-06T14:06:15.481Z,4.07
2018-12-06T14:08:42.943Z,4.27
2018-12-06T14:11:10.410Z,4.67
2018-12-06T14:13:37.929Z,4.13
2018-12-06T14:16:10.382Z,4.00
2018-12-06T14:18:34.861Z,4.53
2018-12-06T14:21:02.338Z,4.50
2018-12-06T14:23:30.753Z,4.43
2018-12-06T14:25:58.371Z,4.23
2018-12-06T14:28:25.814Z,4.20
2018-12-06T14:30:53.304Z,4.27
2018-12-06T14:33:20.773Z,4.47
2018-12-06T14:35:48.344Z,4.40
2018-12-06T14:38:15.810Z,4.57
2018-12-06T14:40:43.295Z,4.00
2018-12-06T14:43:11.019Z,4.80
2018-12-06T14:45:38.675Z,4.50
2018-12-06T14:48:06.998Z,4.77
2018-12-06T14:50:34.475Z,4.90
2018-12-06T14:53:01.931Z,5.30
2018-12-06T14:55:29.424Z,5.40
2018-12-06T14:57:56.890Z,5.27
2018-12-06T15:00:24.459Z,4.93
2018-12-06T15:02:51.916Z,5.60
2018-12-06T15:05:19.390Z,5.90
2018-12-06T15:07:46.982Z,6.20
2018-12-06T15:10:14.425Z,5.47
2018-12-06T15:12:41.910Z,5.80
2018-12-06T15:15:09.527Z,5.00
2018-12-06T15:17:37.016Z,4.60
2018-12-06T15:20:05.163Z,4.90
2018-12-06T15:22:32.623Z,4.80
2018-12-06T15:25:00.307Z,5.43
2018-12-06T15:27:28.122Z,5.17
2018-12-06T15:29:55.634Z,4.80
2018-12-06T15:32:23.176Z,4.23
2018-12-06T15:34:50.618Z,4.27
2018-12-06T15:37:18.119Z,4.60
2018-12-06T15:39:45.602Z,4.20
2018-12-06T15:42:13.077Z,4.57
2018-12-06T15:44:40.527Z,4.40
2018-12-06T15:47:07.981Z,4.10
2018-12-06T15:49:35.471Z,4.30
2018-12-06T15:52:02.946Z,4.00
2018-12-06T15:54:30.449Z,4.00
2018-12-06T15:56:57.898Z,4.33
2018-12-06T15:59:25.377Z,4.23
2018-12-06T16:01:52.840Z,3.90
2018-12-06T16:04:20.327Z,4.40
2018-12-06T16:06:47.871Z,3.93
2018-12-06T16:09:15.351Z,4.27
2018-12-06T16:11:43.537Z,6.40
2018-12-06T16:14:11.089Z,14.23
2018-12-06T16:16:38.571Z,11.57
2018-12-06T16:19:06.044Z,4.93
2018-12-06T16:21:33.490Z,4.53
2018-12-06T16:24:00.972Z,4.63
2018-12-06T16:26:28.453Z,4.83
2018-12-06T16:28:55.919Z,5.50
2018-12-06T16:31:23.401Z,4.93
2018-12-06T16:33:50.877Z,4.70
2018-12-06T16:36:18.355Z,4.60
2018-12-06T16:38:45.829Z,4.80
2018-12-06T16:41:13.317Z,4.70
2018-12-06T16:43:40.781Z,4.73
2018-12-06T16:46:08.263Z,5.33
2018-12-06T16:48:35.917Z,6.73
2018-12-06T16:51:03.452Z,9.80
2018-12-06T16:53:30.897Z,4.93
2018-12-06T16:55:58.430Z,5.77
2018-12-06T16:58:25.874Z,4.90
2018-12-06T17:00:53.809Z,5.60
2018-12-06T17:03:21.678Z,5.07
2018-12-06T17:05:49.202Z,4.73
2018-12-06T17:08:16.667Z,4.60
2018-12-06T17:10:44.161Z,4.77
2018-12-06T17:13:11.726Z,4.90
2018-12-06T17:15:39.212Z,4.83
2018-12-06T17:18:06.670Z,4.57
2018-12-06T17:20:34.131Z,19.10
2018-12-06T17:23:01.630Z,22.03
2018-12-06T17:25:29.087Z,14.43
2018-12-06T17:27:56.572Z,9.37
2018-12-06T17:30:24.149Z,10.87
2018-12-06T17:32:51.633Z,8.23
2018-12-06T17:35:19.106Z,6.67
2018-12-06T17:37:46.615Z,5.70
2018-12-06T17:40:14.470Z,5.00
2018-12-06T17:42:42.324Z,5.27
2018-12-06T17:45:09.987Z,5.50
2018-12-06T17:47:37.755Z,5.00
2018-12-06T17:50:05.945Z,4.60
2018-12-06T17:52:33.894Z,4.30
2018-12-06T17:55:01.404Z,5.10
2018-12-06T17:57:28.915Z,4.60
2018-12-06T17:59:56.675Z,4.80
2018-12-06T18:02:24.544Z,4.50
2018-12-06T18:04:52.031Z,5.33
2018-12-06T18:07:19.526Z,4.70
2018-12-06T18:09:47.826Z,4.37
2018-12-06T18:12:15.383Z,4.97
2018-12-06T18:14:42.853Z,5.20
2018-12-06T18:17:10.338Z,5.20
2018-12-06T18:19:37.800Z,22.23
2018-12-06T18:22:05.319Z,10.67
2018-12-06T18:24:32.785Z,6.27
2018-12-06T18:27:00.266Z,5.70
2018-12-06T18:29:27.897Z,4.93
2018-12-06T18:31:55.367Z,5.37
2018-12-06T18:34:22.852Z,4.80
2018-12-06T18:36:51.710Z,5.20
2018-12-06T18:39:19.240Z,5.43
2018-12-06T18:41:46.743Z,5.40
2018-12-06T18:44:14.232Z,5.67
2018-12-06T18:46:42.356Z,5.50
2018-12-06T18:49:09.881Z,5.50
2018-12-06T18:51:37.695Z,5.77
2018-12-06T18:54:05.773Z,5.50
2018-12-06T18:56:33.308Z,5.60
2018-12-06T18:59:01.186Z,5.70
2018-12-06T19:01:29.471Z,6.30
2018-12-06T19:03:57.433Z,6.20
2018-12-06T19:06:24.933Z,6.53
2018-12-06T19:08:52.859Z,6.60
2018-12-06T19:11:20.382Z,6.77
2018-12-06T19:13:47.850Z,6.77
2018-12-06T19:16:15.743Z,6.10
2018-12-06T19:18:43.255Z,6.27
2018-12-06T19:21:11.176Z,6.27
2018-12-06T19:23:38.674Z,6.33
2018-12-06T19:26:06.824Z,5.90
2018-12-06T19:28:34.679Z,6.00
2018-12-06T19:31:02.643Z,5.47
2018-12-06T19:33:30.507Z,5.03
2018-12-06T19:35:58.126Z,9.20
2018-12-06T19:38:25.941Z,7.63
2018-12-06T19:40:53.803Z,5.53
2018-12-06T19:43:21.311Z,26.37
2018-12-06T19:45:49.741Z,14.60
2018-12-06T19:48:17.260Z,6.40
2018-12-06T19:50:44.710Z,6.23
2018-12-06T19:53:12.624Z,5.77
2018-12-06T19:55:40.493Z,5.07
2018-12-06T19:58:08.040Z,6.00
2018-12-06T20:00:35.487Z,5.80
2018-12-06T20:03:02.951Z,5.73
2018-12-06T20:05:30.417Z,4.77
2018-12-06T20:07:57.889Z,4.60
2018-12-06T20:10:26.064Z,4.90
2018-12-06T20:12:53.619Z,9.70
2018-12-06T20:15:21.078Z,14.80
2018-12-06T20:17:49.140Z,6.67
2018-12-06T20:20:23.363Z,6.33
2018-12-06T20:22:47.050Z,6.27
2018-12-06T20:25:14.519Z,5.60
2018-12-06T20:27:42.025Z,5.97
2018-12-06T20:30:09.819Z,5.30
2018-12-06T20:32:37.343Z,5.13
2018-12-06T20:35:05.179Z,4.20
2018-12-06T20:37:32.658Z,4.27
2018-12-06T20:40:00.118Z,4.30
2018-12-06T20:42:27.582Z,3.10
2018-12-06T20:44:55.251Z,4.00
2018-12-06T20:47:22.739Z,3.47
2018-12-06T20:49:50.207Z,12.10
2018-12-06T20:52:17.672Z,8.13
2018-12-06T20:54:45.159Z,4.03
2018-12-06T20:57:12.664Z,3.23
2018-12-06T20:59:40.129Z,3.00
2018-12-06T21:02:07.575Z,2.83
2018-12-06T21:04:35.051Z,2.60
2018-12-06T21:07:02.526Z,2.83
2018-12-06T21:09:30.016Z,2.63
2018-12-06T21:11:57.470Z,2.67
2018-12-06T21:14:24.947Z,2.50
2018-12-06T21:16:52.412Z,2.50
2018-12-06T21:19:19.953Z,2.60
2018-12-06T21:21:47.430Z,2.67
2018-12-06T21:24:14.915Z,2.33
2018-12-06T21:26:42.394Z,2.90
2018-12-06T21:29:09.878Z,2.50
2018-12-06T21:31:37.370Z,2.93
2018-12-06T21:34:04.834Z,2.60
2018-12-06T21:36:32.381Z,2.60
2018-12-06T21:38:59.831Z,2.60
2018-12-06T21:41:27.328Z,2.53
2018-12-06T21:43:54.776Z,2.73
2018-12-06T21:46:22.324Z,2.20
2018-12-06T21:48:49.773Z,2.17
2018-12-06T21:51:17.266Z,2.23
2018-12-06T21:53:44.712Z,1.97
2018-12-06T21:56:12.208Z,2.23
2018-12-06T21:58:39.761Z,2.20
2018-12-06T22:01:07.445Z,2.13
2018-12-06T22:03:34.914Z,2.10
2018-12-06T22:06:02.978Z,2.40
2018-12-06T22:08:30.480Z,2.33
2018-12-06T22:10:57.953Z,2.30
2018-12-06T22:13:25.419Z,2.13
2018-12-06T22:15:52.891Z,2.30
2018-12-06T22:18:20.383Z,2.50
2018-12-06T22:20:47.822Z,2.50
2018-12-06T22:23:15.359Z,2.47
2018-12-06T22:25:42.831Z,2.50
2018-12-06T22:28:10.323Z,2.77
2018-12-06T22:30:37.773Z,2.50
2018-12-06T22:33:05.231Z,2.43
2018-12-06T22:35:32.703Z,2.50
2018-12-06T22:38:01.099Z,2.63
2018-12-06T22:40:28.579Z,3.07
2018-12-06T22:42:56.053Z,2.80
2018-12-06T22:48:38.886Z,3.20
2018-12-06T22:51:06.481Z,3.00
2018-12-06T22:53:33.948Z,2.83
2018-12-06T22:56:01.412Z,2.73
2018-12-06T22:58:29.697Z,2.60
2018-12-06T23:00:57.748Z,2.90
2018-12-06T23:03:26.683Z,3.00
2018-12-06T23:05:54.162Z,3.30
2018-12-06T23:08:22.093Z,3.30
2018-12-06T23:10:49.555Z,3.13
2018-12-06T23:13:17.001Z,3.13
2018-12-06T23:15:44.566Z,3.40
2018-12-06T23:18:12.216Z,3.37
2018-12-06T23:20:39.710Z,3.23
2018-12-06T23:23:07.198Z,3.53
2018-12-06T23:25:34.667Z,3.53
2018-12-06T23:28:02.218Z,3.93
2018-12-06T23:30:29.767Z,3.57
2018-12-06T23:32:57.279Z,4.00
2018-12-06T23:35:24.851Z,3.97
2018-12-06T23:37:52.302Z,4.03
2018-12-06T23:40:19.786Z,4.10
2018-12-06T23:42:47.255Z,4.40
2018-12-06T23:45:14.761Z,4.27
2018-12-06T23:47:42.218Z,4.00
2018-12-06T23:50:09.674Z,4.00
2018-12-06T23:52:37.225Z,3.40
2018-12-06T23:55:04.841Z,3.60
2018-12-06T23:57:32.373Z,3.20
